sensor_id;sensor_type;location;lat;lon;timestamp;P1;durP1;ratioP1;P2;durP2;ratioP2
4309;SDS011;2168;53.576;9.980;2022-08-21T00:00:13;8.83;;;3.60;;
4309;SDS011;2168;53.576;9.980;2022-08-21T00:03:13;5.83;;;3.47;;
4309;SDS011;2168;53.576;9.980;2022-08-21T00:05:32;8.07;;;3.77;;
4309;SDS011;2168;53.576;9.980;2022-08-21T00:07:58;8.13;;;5.30;;
4309;SDS011;2168;53.576;9.980;2022-08-21T00:10:24;11.70;;;5.60;;
4309;SDS011;2168;53.576;9.980;2022-08-21T00:12:49;6.90;;;5.03;;
4309;SDS011;2168;53.576;9.980;2022-08-21T00:15:19;10.27;;;5.33;;
4309;SDS011;2168;53.576;9.980;2022-08-21T00:17:45;9.40;;;6.30;;
4309;SDS011;2168;53.576;9.980;2022-08-21T00:20:11;10.87;;;6.07;;
4309;SDS011;2168;53.576;9.980;2022-08-21T00:22:37;10.07;;;6.87;;
4309;SDS011;2168;53.576;9.980;2022-08-21T00:25:03;14.53;;;5.57;;
4309;SDS011;2168;53.576;9.980;2022-08-21T00:27:28;9.80;;;5.33;;
4309;SDS011;2168;53.576;9.980;2022-08-21T00:29:54;7.97;;;4.47;;
4309;SDS011;2168;53.576;9.980;2022-08-21T00:32:21;9.80;;;5.30;;
4309;SDS011;2168;53.576;9.980;2022-08-21T00:34:47;6.23;;;4.33;;
4309;SDS011;2168;53.576;9.980;2022-08-21T00:37:12;8.30;;;4.30;;
4309;SDS011;2168;53.576;9.980;2022-08-21T00:39:37;9.50;;;4.00;;
4309;SDS011;2168;53.576;9.980;2022-08-21T00:42:03;9.80;;;4.60;;
4309;SDS011;2168;53.576;9.980;2022-08-21T00:44:28;16.63;;;9.87;;
4309;SDS011;2168;53.576;9.980;2022-08-21T00:46:53;11.70;;;6.93;;
4309;SDS011;2168;53.576;9.980;2022-08-21T00:49:19;9.77;;;6.07;;
4309;SDS011;2168;53.576;9.980;2022-08-21T00:51:51;14.00;;;5.70;;
4309;SDS011;2168;53.576;9.980;2022-08-21T00:54:19;14.57;;;5.20;;
4309;SDS011;2168;53.576;9.980;2022-08-21T00:56:46;8.50;;;5.00;;
4309;SDS011;2168;53.576;9.980;2022-08-21T00:59:12;9.57;;;5.60;;
4309;SDS011;2168;53.576;9.980;2022-08-21T01:01:38;6.27;;;4.70;;
4309;SDS011;2168;53.576;9.980;2022-08-21T01:04:03;10.00;;;4.17;;
4309;SDS011;2168;53.576;9.980;2022-08-21T01:06:29;11.07;;;6.17;;
4309;SDS011;2168;53.576;9.980;2022-08-21T01:08:54;10.17;;;5.10;;
4309;SDS011;2168;53.576;9.980;2022-08-21T01:11:19;10.93;;;4.80;;
4309;SDS011;2168;53.576;9.980;2022-08-21T01:13:45;14.60;;;5.63;;
4309;SDS011;2168;53.576;9.980;2022-08-21T01:16:12;12.20;;;5.73;;
4309;SDS011;2168;53.576;9.980;2022-08-21T01:18:38;17.97;;;6.33;;
4309;SDS011;2168;53.576;9.980;2022-08-21T01:23:32;15.23;;;5.63;;
4309;SDS011;2168;53.576;9.980;2022-08-21T01:25:58;12.17;;;6.40;;
4309;SDS011;2168;53.576;9.980;2022-08-21T01:28:23;20.17;;;6.80;;
4309;SDS011;2168;53.576;9.980;2022-08-21T01:30:49;16.80;;;5.87;;
4309;SDS011;2168;53.576;9.980;2022-08-21T01:33:16;15.10;;;6.07;;
4309;SDS011;2168;53.576;9.980;2022-08-21T01:35:42;28.57;;;6.70;;
4309;SDS011;2168;53.576;9.980;2022-08-21T01:38:07;14.10;;;6.20;;
4309;SDS011;2168;53.576;9.980;2022-08-21T01:40:32;14.97;;;6.43;;
4309;SDS011;2168;53.576;9.980;2022-08-21T01:42:58;16.53;;;6.90;;
4309;SDS011;2168;53.576;9.980;2022-08-21T01:45:23;19.67;;;6.90;;
4309;SDS011;2168;53.576;9.980;2022-08-21T01:47:48;20.07;;;6.00;;
4309;SDS011;2168;53.576;9.980;2022-08-21T01:50:15;14.17;;;6.00;;
4309;SDS011;2168;53.576;9.980;2022-08-21T01:52:41;13.37;;;6.27;;
4309;SDS011;2168;53.576;9.980;2022-08-21T01:55:07;14.53;;;5.57;;
4309;SDS011;2168;53.576;9.980;2022-08-21T01:57:33;18.23;;;6.67;;
4309;SDS011;2168;53.576;9.980;2022-08-21T01:59:59;12.30;;;6.50;;
4309;SDS011;2168;53.576;9.980;2022-08-21T02:02:24;13.07;;;6.50;;
4309;SDS011;2168;53.576;9.980;2022-08-21T02:04:49;17.53;;;6.57;;
4309;SDS011;2168;53.576;9.980;2022-08-21T02:07:14;10.43;;;5.50;;
4309;SDS011;2168;53.576;9.980;2022-08-21T02:09:40;13.10;;;5.67;;
4309;SDS011;2168;53.576;9.980;2022-08-21T02:12:07;13.13;;;5.40;;
4309;SDS011;2168;53.576;9.980;2022-08-21T02:14:32;12.00;;;6.47;;
4309;SDS011;2168;53.576;9.980;2022-08-21T02:16:58;9.63;;;5.10;;
4309;SDS011;2168;53.576;9.980;2022-08-21T02:19:23;14.17;;;6.10;;
4309;SDS011;2168;53.576;9.980;2022-08-21T02:21:48;10.50;;;5.77;;
4309;SDS011;2168;53.576;9.980;2022-08-21T02:24:14;10.73;;;4.80;;
4309;SDS011;2168;53.576;9.980;2022-08-21T02:26:39;11.97;;;5.43;;
4309;SDS011;2168;53.576;9.980;2022-08-21T02:29:04;12.37;;;5.03;;
4309;SDS011;2168;53.576;9.980;2022-08-21T02:31:30;8.93;;;4.60;;
4309;SDS011;2168;53.576;9.980;2022-08-21T02:33:56;12.10;;;5.03;;
4309;SDS011;2168;53.576;9.980;2022-08-21T02:36:21;9.97;;;3.80;;
4309;SDS011;2168;53.576;9.980;2022-08-21T02:38:46;10.87;;;4.90;;
4309;SDS011;2168;53.576;9.980;2022-08-21T02:41:17;14.97;;;4.90;;
4309;SDS011;2168;53.576;9.980;2022-08-21T02:43:42;10.57;;;4.40;;
4309;SDS011;2168;53.576;9.980;2022-08-21T02:46:08;12.33;;;4.77;;
4309;SDS011;2168;53.576;9.980;2022-08-21T02:48:34;8.50;;;5.40;;
4309;SDS011;2168;53.576;9.980;2022-08-21T02:51:02;14.10;;;5.10;;
4309;SDS011;2168;53.576;9.980;2022-08-21T02:53:28;11.00;;;4.87;;
4309;SDS011;2168;53.576;9.980;2022-08-21T02:55:53;12.23;;;4.57;;
4309;SDS011;2168;53.576;9.980;2022-08-21T02:58:21;12.00;;;4.80;;
4309;SDS011;2168;53.576;9.980;2022-08-21T03:00:46;10.77;;;5.17;;
4309;SDS011;2168;53.576;9.980;2022-08-21T03:03:11;12.23;;;4.83;;
4309;SDS011;2168;53.576;9.980;2022-08-21T03:05:39;8.87;;;4.70;;
4309;SDS011;2168;53.576;9.980;2022-08-21T03:08:05;10.87;;;4.73;;
4309;SDS011;2168;53.576;9.980;2022-08-21T03:10:34;6.47;;;4.00;;
4309;SDS011;2168;53.576;9.980;2022-08-21T03:12:59;11.00;;;4.30;;
4309;SDS011;2168;53.576;9.980;2022-08-21T03:15:25;8.03;;;4.10;;
4309;SDS011;2168;53.576;9.980;2022-08-21T03:17:50;7.43;;;3.50;;
4309;SDS011;2168;53.576;9.980;2022-08-21T03:20:17;8.33;;;4.40;;
4309;SDS011;2168;53.576;9.980;2022-08-21T03:22:43;8.63;;;4.90;;
4309;SDS011;2168;53.576;9.980;2022-08-21T03:25:08;9.20;;;4.20;;
4309;SDS011;2168;53.576;9.980;2022-08-21T03:27:35;10.80;;;4.70;;
4309;SDS011;2168;53.576;9.980;2022-08-21T03:30:01;9.97;;;4.93;;
4309;SDS011;2168;53.576;9.980;2022-08-21T03:32:29;6.97;;;4.17;;
4309;SDS011;2168;53.576;9.980;2022-08-21T03:34:56;7.00;;;4.53;;
4309;SDS011;2168;53.576;9.980;2022-08-21T03:37:21;8.07;;;3.93;;
4309;SDS011;2168;53.576;9.980;2022-08-21T03:39:47;9.70;;;4.47;;
4309;SDS011;2168;53.576;9.980;2022-08-21T03:42:12;13.30;;;5.20;;
4309;SDS011;2168;53.576;9.980;2022-08-21T03:44:37;7.90;;;5.67;;
4309;SDS011;2168;53.576;9.980;2022-08-21T03:47:04;11.37;;;5.00;;
4309;SDS011;2168;53.576;9.980;2022-08-21T03:49:30;8.00;;;4.67;;
4309;SDS011;2168;53.576;9.980;2022-08-21T03:51:55;8.27;;;3.30;;
4309;SDS011;2168;53.576;9.980;2022-08-21T03:54:20;6.50;;;3.90;;
4309;SDS011;2168;53.576;9.980;2022-08-21T03:56:45;10.60;;;3.80;;
4309;SDS011;2168;53.576;9.980;2022-08-21T03:59:11;6.70;;;3.50;;
4309;SDS011;2168;53.576;9.980;2022-08-21T04:01:36;10.53;;;3.70;;
4309;SDS011;2168;53.576;9.980;2022-08-21T04:04:02;10.27;;;3.90;;
4309;SDS011;2168;53.576;9.980;2022-08-21T04:06:28;7.30;;;4.40;;
4309;SDS011;2168;53.576;9.980;2022-08-21T04:08:53;6.57;;;3.93;;
4309;SDS011;2168;53.576;9.980;2022-08-21T04:11:18;13.40;;;3.90;;
4309;SDS011;2168;53.576;9.980;2022-08-21T04:13:44;8.10;;;4.20;;
4309;SDS011;2168;53.576;9.980;2022-08-21T04:16:09;8.47;;;4.20;;
4309;SDS011;2168;53.576;9.980;2022-08-21T04:18:34;12.60;;;4.37;;
4309;SDS011;2168;53.576;9.980;2022-08-21T04:21:00;6.63;;;3.80;;
4309;SDS011;2168;53.576;9.980;2022-08-21T04:23:26;10.07;;;4.37;;
4309;SDS011;2168;53.576;9.980;2022-08-21T04:25:52;7.30;;;4.10;;
4309;SDS011;2168;53.576;9.980;2022-08-21T04:28:17;8.53;;;4.20;;
4309;SDS011;2168;53.576;9.980;2022-08-21T04:30:42;8.40;;;4.27;;
4309;SDS011;2168;53.576;9.980;2022-08-21T04:33:08;5.23;;;3.73;;
4309;SDS011;2168;53.576;9.980;2022-08-21T04:35:33;7.97;;;4.50;;
4309;SDS011;2168;53.576;9.980;2022-08-21T04:37:58;6.10;;;3.50;;
4309;SDS011;2168;53.576;9.980;2022-08-21T04:40:25;6.57;;;3.70;;
4309;SDS011;2168;53.576;9.980;2022-08-21T04:42:52;5.93;;;3.77;;
4309;SDS011;2168;53.576;9.980;2022-08-21T04:47:44;8.30;;;4.00;;
4309;SDS011;2168;53.576;9.980;2022-08-21T04:50:10;7.77;;;4.00;;
4309;SDS011;2168;53.576;9.980;2022-08-21T04:52:35;6.13;;;3.90;;
4309;SDS011;2168;53.576;9.980;2022-08-21T04:55:00;6.27;;;4.10;;
4309;SDS011;2168;53.576;9.980;2022-08-21T04:57:26;7.50;;;4.10;;
4309;SDS011;2168;53.576;9.980;2022-08-21T04:59:51;8.00;;;4.80;;
4309;SDS011;2168;53.576;9.980;2022-08-21T05:02:17;16.40;;;4.13;;
4309;SDS011;2168;53.576;9.980;2022-08-21T05:04:47;5.87;;;4.00;;
4309;SDS011;2168;53.576;9.980;2022-08-21T05:07:18;10.50;;;4.97;;
4309;SDS011;2168;53.576;9.980;2022-08-21T05:09:43;7.17;;;3.67;;
4309;SDS011;2168;53.576;9.980;2022-08-21T05:12:09;8.03;;;4.27;;
4309;SDS011;2168;53.576;9.980;2022-08-21T05:14:35;7.97;;;3.63;;
4309;SDS011;2168;53.576;9.980;2022-08-21T05:17:00;9.67;;;4.30;;
4309;SDS011;2168;53.576;9.980;2022-08-21T05:19:25;7.03;;;4.50;;
4309;SDS011;2168;53.576;9.980;2022-08-21T05:21:51;8.40;;;4.40;;
4309;SDS011;2168;53.576;9.980;2022-08-21T05:24:17;13.53;;;4.37;;
4309;SDS011;2168;53.576;9.980;2022-08-21T05:26:42;10.07;;;4.90;;
4309;SDS011;2168;53.576;9.980;2022-08-21T05:29:08;9.37;;;4.90;;
4309;SDS011;2168;53.576;9.980;2022-08-21T05:31:33;7.00;;;4.23;;
4309;SDS011;2168;53.576;9.980;2022-08-21T05:33:58;10.70;;;4.83;;
4309;SDS011;2168;53.576;9.980;2022-08-21T05:36:24;6.00;;;4.20;;
4309;SDS011;2168;53.576;9.980;2022-08-21T05:38:49;10.03;;;4.50;;
4309;SDS011;2168;53.576;9.980;2022-08-21T05:41:14;11.33;;;4.67;;
4309;SDS011;2168;53.576;9.980;2022-08-21T05:43:40;8.37;;;4.60;;
4309;SDS011;2168;53.576;9.980;2022-08-21T05:46:05;11.90;;;5.13;;
4309;SDS011;2168;53.576;9.980;2022-08-21T05:48:31;8.53;;;3.93;;
4309;SDS011;2168;53.576;9.980;2022-08-21T05:50:57;9.27;;;4.77;;
4309;SDS011;2168;53.576;9.980;2022-08-21T05:53:23;7.60;;;4.50;;
4309;SDS011;2168;53.576;9.980;2022-08-21T05:55:49;11.53;;;3.53;;
4309;SDS011;2168;53.576;9.980;2022-08-21T05:58:15;11.47;;;4.37;;
4309;SDS011;2168;53.576;9.980;2022-08-21T06:00:42;8.43;;;3.37;;
4309;SDS011;2168;53.576;9.980;2022-08-21T06:03:15;8.03;;;3.50;;
4309;SDS011;2168;53.576;9.980;2022-08-21T06:05:42;9.10;;;3.37;;
4309;SDS011;2168;53.576;9.980;2022-08-21T06:08:07;7.80;;;3.50;;
4309;SDS011;2168;53.576;9.980;2022-08-21T06:10:33;4.37;;;2.87;;
4309;SDS011;2168;53.576;9.980;2022-08-21T06:12:58;7.47;;;2.90;;
4309;SDS011;2168;53.576;9.980;2022-08-21T06:15:23;7.83;;;3.93;;
4309;SDS011;2168;53.576;9.980;2022-08-21T06:17:48;6.60;;;3.30;;
4309;SDS011;2168;53.576;9.980;2022-08-21T06:20:14;6.00;;;2.67;;
4309;SDS011;2168;53.576;9.980;2022-08-21T06:22:39;4.53;;;2.27;;
4309;SDS011;2168;53.576;9.980;2022-08-21T06:25:04;5.93;;;2.40;;
4309;SDS011;2168;53.576;9.980;2022-08-21T06:27:30;8.30;;;3.00;;
4309;SDS011;2168;53.576;9.980;2022-08-21T06:29:55;6.77;;;2.80;;
4309;SDS011;2168;53.576;9.980;2022-08-21T06:32:22;4.67;;;2.40;;
4309;SDS011;2168;53.576;9.980;2022-08-21T06:34:47;6.90;;;2.80;;
4309;SDS011;2168;53.576;9.980;2022-08-21T06:37:12;5.67;;;2.70;;
4309;SDS011;2168;53.576;9.980;2022-08-21T06:39:38;2.93;;;2.40;;
4309;SDS011;2168;53.576;9.980;2022-08-21T06:42:04;4.90;;;2.47;;
4309;SDS011;2168;53.576;9.980;2022-08-21T06:44:30;3.90;;;2.13;;
4309;SDS011;2168;53.576;9.980;2022-08-21T06:46:55;4.50;;;2.60;;
4309;SDS011;2168;53.576;9.980;2022-08-21T06:49:20;6.33;;;2.60;;
4309;SDS011;2168;53.576;9.980;2022-08-21T06:51:45;3.83;;;2.37;;
4309;SDS011;2168;53.576;9.980;2022-08-21T06:54:11;8.30;;;2.27;;
4309;SDS011;2168;53.576;9.980;2022-08-21T06:56:36;3.47;;;2.30;;
4309;SDS011;2168;53.576;9.980;2022-08-21T06:59:03;4.63;;;2.30;;
4309;SDS011;2168;53.576;9.980;2022-08-21T07:01:28;5.80;;;2.47;;
4309;SDS011;2168;53.576;9.980;2022-08-21T07:03:53;10.40;;;2.80;;
4309;SDS011;2168;53.576;9.980;2022-08-21T07:06:18;10.00;;;3.00;;
4309;SDS011;2168;53.576;9.980;2022-08-21T07:08:44;4.00;;;2.70;;
4309;SDS011;2168;53.576;9.980;2022-08-21T07:11:11;5.60;;;3.07;;
4309;SDS011;2168;53.576;9.980;2022-08-21T07:13:37;4.37;;;2.40;;
4309;SDS011;2168;53.576;9.980;2022-08-21T07:16:02;4.23;;;2.57;;
4309;SDS011;2168;53.576;9.980;2022-08-21T07:18:27;6.00;;;2.90;;
4309;SDS011;2168;53.576;9.980;2022-08-21T07:20:53;7.37;;;2.70;;
4309;SDS011;2168;53.576;9.980;2022-08-21T07:23:23;7.50;;;2.70;;
4309;SDS011;2168;53.576;9.980;2022-08-21T07:25:49;10.10;;;3.33;;
4309;SDS011;2168;53.576;9.980;2022-08-21T07:28:15;2.70;;;2.27;;
4309;SDS011;2168;53.576;9.980;2022-08-21T07:30:40;5.90;;;2.37;;
4309;SDS011;2168;53.576;9.980;2022-08-21T07:33:05;5.27;;;2.40;;
4309;SDS011;2168;53.576;9.980;2022-08-21T07:35:31;8.77;;;3.10;;
4309;SDS011;2168;53.576;9.980;2022-08-21T07:37:58;7.70;;;2.40;;
4309;SDS011;2168;53.576;9.980;2022-08-21T07:40:23;4.63;;;3.07;;
4309;SDS011;2168;53.576;9.980;2022-08-21T07:42:49;6.57;;;2.20;;
4309;SDS011;2168;53.576;9.980;2022-08-21T07:45:15;5.23;;;2.87;;
4309;SDS011;2168;53.576;9.980;2022-08-21T07:47:40;6.07;;;3.17;;
4309;SDS011;2168;53.576;9.980;2022-08-21T07:50:05;5.73;;;2.40;;
4309;SDS011;2168;53.576;9.980;2022-08-21T07:52:31;5.87;;;2.40;;
4309;SDS011;2168;53.576;9.980;2022-08-21T07:54:57;6.10;;;3.13;;
4309;SDS011;2168;53.576;9.980;2022-08-21T07:57:22;5.83;;;2.80;;
4309;SDS011;2168;53.576;9.980;2022-08-21T07:59:47;4.83;;;2.50;;
4309;SDS011;2168;53.576;9.980;2022-08-21T08:02:23;5.27;;;3.00;;
4309;SDS011;2168;53.576;9.980;2022-08-21T08:04:52;5.83;;;2.37;;
4309;SDS011;2168;53.576;9.980;2022-08-21T08:07:27;4.93;;;2.60;;
4309;SDS011;2168;53.576;9.980;2022-08-21T08:09:55;8.40;;;2.80;;
4309;SDS011;2168;53.576;9.980;2022-08-21T08:12:20;7.30;;;2.53;;
4309;SDS011;2168;53.576;9.980;2022-08-21T08:14:46;3.80;;;2.60;;
4309;SDS011;2168;53.576;9.980;2022-08-21T08:17:11;3.70;;;2.50;;
4309;SDS011;2168;53.576;9.980;2022-08-21T08:19:38;11.23;;;2.60;;
4309;SDS011;2168;53.576;9.980;2022-08-21T08:22:12;5.17;;;3.20;;
4309;SDS011;2168;53.576;9.980;2022-08-21T08:24:40;8.93;;;3.23;;
4309;SDS011;2168;53.576;9.980;2022-08-21T08:27:06;6.20;;;2.97;;
4309;SDS011;2168;53.576;9.980;2022-08-21T08:29:31;7.67;;;2.60;;
4309;SDS011;2168;53.576;9.980;2022-08-21T08:31:56;7.83;;;2.87;;
4309;SDS011;2168;53.576;9.980;2022-08-21T08:34:22;4.00;;;3.17;;
4309;SDS011;2168;53.576;9.980;2022-08-21T08:36:48;8.53;;;2.60;;
4309;SDS011;2168;53.576;9.980;2022-08-21T08:39:13;8.00;;;2.80;;
4309;SDS011;2168;53.576;9.980;2022-08-21T08:41:38;4.57;;;3.47;;
4309;SDS011;2168;53.576;9.980;2022-08-21T08:44:04;8.80;;;2.70;;
4309;SDS011;2168;53.576;9.980;2022-08-21T08:46:41;8.73;;;2.90;;
4309;SDS011;2168;53.576;9.980;2022-08-21T08:49:09;4.40;;;2.53;;
4309;SDS011;2168;53.576;9.980;2022-08-21T08:51:42;5.63;;;2.70;;
4309;SDS011;2168;53.576;9.980;2022-08-21T08:54:11;11.27;;;3.00;;
4309;SDS011;2168;53.576;9.980;2022-08-21T08:56:37;12.10;;;2.63;;
4309;SDS011;2168;53.576;9.980;2022-08-21T08:59:19;9.00;;;3.37;;
4309;SDS011;2168;53.576;9.980;2022-08-21T09:01:46;9.30;;;2.67;;
4309;SDS011;2168;53.576;9.980;2022-08-21T09:04:11;10.30;;;2.80;;
4309;SDS011;2168;53.576;9.980;2022-08-21T09:09:15;8.30;;;2.97;;
4309;SDS011;2168;53.576;9.980;2022-08-21T09:12:09;5.60;;;2.60;;
4309;SDS011;2168;53.576;9.980;2022-08-21T09:17:23;8.13;;;2.97;;
4309;SDS011;2168;53.576;9.980;2022-08-21T09:22:53;10.40;;;3.00;;
4309;SDS011;2168;53.576;9.980;2022-08-21T09:25:23;9.47;;;2.93;;
4309;SDS011;2168;53.576;9.980;2022-08-21T09:27:49;9.47;;;3.27;;
4309;SDS011;2168;53.576;9.980;2022-08-21T09:30:15;9.57;;;4.23;;
4309;SDS011;2168;53.576;9.980;2022-08-21T09:32:41;10.93;;;3.30;;
4309;SDS011;2168;53.576;9.980;2022-08-21T09:35:11;10.30;;;3.03;;
4309;SDS011;2168;53.576;9.980;2022-08-21T09:37:45;7.10;;;2.90;;
4309;SDS011;2168;53.576;9.980;2022-08-21T09:43:14;6.23;;;3.60;;
4309;SDS011;2168;53.576;9.980;2022-08-21T09:45:42;5.00;;;3.00;;
4309;SDS011;2168;53.576;9.980;2022-08-21T09:48:12;7.53;;;3.17;;
4309;SDS011;2168;53.576;9.980;2022-08-21T09:50:38;5.70;;;2.60;;
4309;SDS011;2168;53.576;9.980;2022-08-21T09:53:03;8.67;;;3.93;;
4309;SDS011;2168;53.576;9.980;2022-08-21T09:55:39;10.03;;;3.60;;
4309;SDS011;2168;53.576;9.980;2022-08-21T09:58:31;8.03;;;3.20;;
4309;SDS011;2168;53.576;9.980;2022-08-21T10:00:58;8.67;;;3.57;;
4309;SDS011;2168;53.576;9.980;2022-08-21T10:03:24;7.67;;;2.80;;
4309;SDS011;2168;53.576;9.980;2022-08-21T10:05:50;6.27;;;3.13;;
4309;SDS011;2168;53.576;9.980;2022-08-21T10:08:17;9.13;;;4.87;;
4309;SDS011;2168;53.576;9.980;2022-08-21T10:10:43;5.60;;;3.57;;
4309;SDS011;2168;53.576;9.980;2022-08-21T10:13:17;6.80;;;3.50;;
4309;SDS011;2168;53.576;9.980;2022-08-21T10:18:27;7.57;;;2.93;;
4309;SDS011;2168;53.576;9.980;2022-08-21T10:23:54;5.90;;;3.10;;
4309;SDS011;2168;53.576;9.980;2022-08-21T10:36:50;3.83;;;2.60;;
4309;SDS011;2168;53.576;9.980;2022-08-21T10:44:21;11.97;;;3.10;;
4309;SDS011;2168;53.576;9.980;2022-08-21T10:47:23;5.60;;;2.60;;
4309;SDS011;2168;53.576;9.980;2022-08-21T10:50:17;4.73;;;2.97;;
4309;SDS011;2168;53.576;9.980;2022-08-21T10:57:50;6.40;;;2.90;;
4309;SDS011;2168;53.576;9.980;2022-08-21T11:00:18;6.23;;;3.70;;
4309;SDS011;2168;53.576;9.980;2022-08-21T11:02:46;9.30;;;2.80;;
4309;SDS011;2168;53.576;9.980;2022-08-21T11:07:57;6.57;;;2.70;;
4309;SDS011;2168;53.576;9.980;2022-08-21T11:10:26;5.80;;;2.43;;
4309;SDS011;2168;53.576;9.980;2022-08-21T11:13:00;8.03;;;4.90;;
4309;SDS011;2168;53.576;9.980;2022-08-21T11:20:40;3.27;;;2.90;;
4309;SDS011;2168;53.576;9.980;2022-08-21T11:23:08;7.33;;;5.57;;
4309;SDS011;2168;53.576;9.980;2022-08-21T11:25:53;4.50;;;2.87;;
4309;SDS011;2168;53.576;9.980;2022-08-21T11:28:26;5.23;;;2.67;;
4309;SDS011;2168;53.576;9.980;2022-08-21T11:30:59;4.77;;;2.70;;
4309;SDS011;2168;53.576;9.980;2022-08-21T11:33:46;5.00;;;2.57;;
4309;SDS011;2168;53.576;9.980;2022-08-21T11:39:06;2.83;;;2.63;;
4309;SDS011;2168;53.576;9.980;2022-08-21T11:41:40;6.87;;;2.37;;
4309;SDS011;2168;53.576;9.980;2022-08-21T11:46:42;4.63;;;2.87;;
4309;SDS011;2168;53.576;9.980;2022-08-21T11:51:59;6.90;;;3.30;;
4309;SDS011;2168;53.576;9.980;2022-08-21T11:54:46;2.83;;;2.63;;
4309;SDS011;2168;53.576;9.980;2022-08-21T11:59:59;4.27;;;2.60;;
4309;SDS011;2168;53.576;9.980;2022-08-21T12:02:28;2.50;;;2.23;;
4309;SDS011;2168;53.576;9.980;2022-08-21T12:04:59;4.40;;;2.90;;
4309;SDS011;2168;53.576;9.980;2022-08-21T12:10:04;4.57;;;3.10;;
4309;SDS011;2168;53.576;9.980;2022-08-21T12:12:32;7.03;;;3.90;;
4309;SDS011;2168;53.576;9.980;2022-08-21T12:15:12;5.60;;;3.00;;
4309;SDS011;2168;53.576;9.980;2022-08-21T12:17:38;8.67;;;8.03;;
4309;SDS011;2168;53.576;9.980;2022-08-21T12:22:49;4.37;;;2.90;;
4309;SDS011;2168;53.576;9.980;2022-08-21T12:25:18;5.70;;;5.20;;
4309;SDS011;2168;53.576;9.980;2022-08-21T12:27:49;4.40;;;4.00;;
4309;SDS011;2168;53.576;9.980;2022-08-21T12:30:21;5.30;;;4.90;;
4309;SDS011;2168;53.576;9.980;2022-08-21T12:32:54;3.67;;;2.90;;
4309;SDS011;2168;53.576;9.980;2022-08-21T12:35:22;3.00;;;2.63;;
4309;SDS011;2168;53.576;9.980;2022-08-21T12:38:04;4.57;;;3.30;;
4309;SDS011;2168;53.576;9.980;2022-08-21T12:40:39;4.60;;;4.20;;
4309;SDS011;2168;53.576;9.980;2022-08-21T12:43:04;3.23;;;2.93;;
4309;SDS011;2168;53.576;9.980;2022-08-21T12:45:31;4.87;;;2.90;;
4309;SDS011;2168;53.576;9.980;2022-08-21T12:48:09;3.73;;;3.40;;
4309;SDS011;2168;53.576;9.980;2022-08-21T12:53:19;3.90;;;3.53;;
4309;SDS011;2168;53.576;9.980;2022-08-21T12:55:47;3.50;;;3.00;;
4309;SDS011;2168;53.576;9.980;2022-08-21T12:58:19;4.20;;;2.83;;
4309;SDS011;2168;53.576;9.980;2022-08-21T13:03:36;5.20;;;3.40;;
4309;SDS011;2168;53.576;9.980;2022-08-21T13:06:03;4.50;;;3.47;;
4309;SDS011;2168;53.576;9.980;2022-08-21T13:08:28;3.20;;;3.00;;
4309;SDS011;2168;53.576;9.980;2022-08-21T13:11:00;2.70;;;2.50;;
4309;SDS011;2168;53.576;9.980;2022-08-21T13:13:27;7.60;;;2.70;;
4309;SDS011;2168;53.576;9.980;2022-08-21T13:16:03;4.73;;;3.33;;
4309;SDS011;2168;53.576;9.980;2022-08-21T13:18:29;5.83;;;5.33;;
4309;SDS011;2168;53.576;9.980;2022-08-21T13:21:03;3.23;;;2.83;;
4309;SDS011;2168;53.576;9.980;2022-08-21T13:23:29;2.87;;;2.67;;
4309;SDS011;2168;53.576;9.980;2022-08-21T13:25:55;2.93;;;2.73;;
4309;SDS011;2168;53.576;9.980;2022-08-21T13:28:20;3.17;;;2.77;;
4309;SDS011;2168;53.576;9.980;2022-08-21T13:33:15;4.00;;;3.30;;
4309;SDS011;2168;53.576;9.980;2022-08-21T13:38:22;5.80;;;3.07;;
4309;SDS011;2168;53.576;9.980;2022-08-21T13:40:50;3.13;;;2.80;;
4309;SDS011;2168;53.576;9.980;2022-08-21T13:43:17;4.93;;;3.67;;
4309;SDS011;2168;53.576;9.980;2022-08-21T13:45:44;6.03;;;5.63;;
4309;SDS011;2168;53.576;9.980;2022-08-21T13:48:09;4.07;;;2.97;;
4309;SDS011;2168;53.576;9.980;2022-08-21T13:50:35;5.50;;;5.10;;
4309;SDS011;2168;53.576;9.980;2022-08-21T13:53:04;6.10;;;5.50;;
4309;SDS011;2168;53.576;9.980;2022-08-21T13:55:37;3.17;;;2.97;;
4309;SDS011;2168;53.576;9.980;2022-08-21T13:58:03;6.63;;;5.50;;
4309;SDS011;2168;53.576;9.980;2022-08-21T14:00:30;3.30;;;3.00;;
4309;SDS011;2168;53.576;9.980;2022-08-21T14:03:00;5.77;;;5.47;;
4309;SDS011;2168;53.576;9.980;2022-08-21T14:05:27;4.63;;;4.30;;
4309;SDS011;2168;53.576;9.980;2022-08-21T14:08:12;4.00;;;3.20;;
4309;SDS011;2168;53.576;9.980;2022-08-21T14:10:45;4.67;;;3.10;;
4309;SDS011;2168;53.576;9.980;2022-08-21T14:15:54;4.47;;;3.33;;
4309;SDS011;2168;53.576;9.980;2022-08-21T14:18:19;3.93;;;2.87;;
4309;SDS011;2168;53.576;9.980;2022-08-21T14:20:45;4.50;;;2.80;;
4309;SDS011;2168;53.576;9.980;2022-08-21T14:23:10;3.53;;;3.17;;
4309;SDS011;2168;53.576;9.980;2022-08-21T14:25:42;5.37;;;3.40;;
4309;SDS011;2168;53.576;9.980;2022-08-21T14:30:37;4.33;;;2.60;;
4309;SDS011;2168;53.576;9.980;2022-08-21T14:33:04;5.80;;;3.17;;
4309;SDS011;2168;53.576;9.980;2022-08-21T14:35:34;2.73;;;2.47;;
4309;SDS011;2168;53.576;9.980;2022-08-21T14:37:59;3.33;;;3.13;;
4309;SDS011;2168;53.576;9.980;2022-08-21T14:40:24;4.20;;;3.60;;
4309;SDS011;2168;53.576;9.980;2022-08-21T14:42:50;3.67;;;3.37;;
4309;SDS011;2168;53.576;9.980;2022-08-21T14:47:45;3.90;;;3.13;;
4309;SDS011;2168;53.576;9.980;2022-08-21T14:50:11;3.27;;;3.17;;
4309;SDS011;2168;53.576;9.980;2022-08-21T14:52:37;4.23;;;3.93;;
4309;SDS011;2168;53.576;9.980;2022-08-21T14:55:05;5.13;;;4.83;;
4309;SDS011;2168;53.576;9.980;2022-08-21T14:57:40;5.93;;;3.73;;
4309;SDS011;2168;53.576;9.980;2022-08-21T15:00:09;5.20;;;3.70;;
4309;SDS011;2168;53.576;9.980;2022-08-21T15:02:35;6.83;;;4.17;;
4309;SDS011;2168;53.576;9.980;2022-08-21T15:05:01;3.97;;;3.60;;
4309;SDS011;2168;53.576;9.980;2022-08-21T15:07:26;5.33;;;4.93;;
4309;SDS011;2168;53.576;9.980;2022-08-21T15:09:51;6.47;;;3.80;;
4309;SDS011;2168;53.576;9.980;2022-08-21T15:12:17;4.43;;;3.50;;
4309;SDS011;2168;53.576;9.980;2022-08-21T15:14:43;7.30;;;3.90;;
4309;SDS011;2168;53.576;9.980;2022-08-21T15:17:08;5.30;;;4.17;;
4309;SDS011;2168;53.576;9.980;2022-08-21T15:19:34;5.43;;;4.90;;
4309;SDS011;2168;53.576;9.980;2022-08-21T15:22:00;6.33;;;5.83;;
4309;SDS011;2168;53.576;9.980;2022-08-21T15:24:29;4.23;;;3.70;;
4309;SDS011;2168;53.576;9.980;2022-08-21T15:26:54;4.00;;;3.60;;
4309;SDS011;2168;53.576;9.980;2022-08-21T15:29:20;4.33;;;3.93;;
4309;SDS011;2168;53.576;9.980;2022-08-21T15:34:17;4.43;;;4.00;;
4309;SDS011;2168;53.576;9.980;2022-08-21T15:36:42;3.77;;;3.57;;
4309;SDS011;2168;53.576;9.980;2022-08-21T15:39:07;5.43;;;4.30;;
4309;SDS011;2168;53.576;9.980;2022-08-21T15:41:33;4.37;;;3.77;;
4309;SDS011;2168;53.576;9.980;2022-08-21T15:43:58;5.23;;;4.73;;
4309;SDS011;2168;53.576;9.980;2022-08-21T15:46:23;5.40;;;4.37;;
4309;SDS011;2168;53.576;9.980;2022-08-21T15:48:49;4.73;;;3.53;;
4309;SDS011;2168;53.576;9.980;2022-08-21T15:51:14;6.53;;;5.90;;
4309;SDS011;2168;53.576;9.980;2022-08-21T15:53:40;3.67;;;3.43;;
4309;SDS011;2168;53.576;9.980;2022-08-21T15:56:11;6.30;;;5.80;;
4309;SDS011;2168;53.576;9.980;2022-08-21T15:58:39;4.37;;;3.73;;
4309;SDS011;2168;53.576;9.980;2022-08-21T16:01:05;3.43;;;3.13;;
4309;SDS011;2168;53.576;9.980;2022-08-21T16:03:30;6.30;;;4.30;;
4309;SDS011;2168;53.576;9.980;2022-08-21T16:05:55;5.67;;;5.17;;
4309;SDS011;2168;53.576;9.980;2022-08-21T16:08:22;6.50;;;4.33;;
4309;SDS011;2168;53.576;9.980;2022-08-21T16:10:48;5.90;;;4.33;;
4309;SDS011;2168;53.576;9.980;2022-08-21T16:13:18;4.33;;;3.63;;
4309;SDS011;2168;53.576;9.980;2022-08-21T16:15:45;7.30;;;6.80;;
4309;SDS011;2168;53.576;9.980;2022-08-21T16:18:10;5.30;;;3.70;;
4309;SDS011;2168;53.576;9.980;2022-08-21T16:20:35;6.50;;;3.77;;
4309;SDS011;2168;53.576;9.980;2022-08-21T16:23:00;3.53;;;3.23;;
4309;SDS011;2168;53.576;9.980;2022-08-21T16:25:26;6.80;;;6.30;;
4309;SDS011;2168;53.576;9.980;2022-08-21T16:27:53;4.03;;;3.60;;
4309;SDS011;2168;53.576;9.980;2022-08-21T16:30:19;4.20;;;3.47;;
4309;SDS011;2168;53.576;9.980;2022-08-21T16:32:45;3.80;;;3.33;;
4309;SDS011;2168;53.576;9.980;2022-08-21T16:35:13;4.73;;;3.57;;
4309;SDS011;2168;53.576;9.980;2022-08-21T16:37:39;4.30;;;4.00;;
4309;SDS011;2168;53.576;9.980;2022-08-21T16:40:05;3.60;;;3.30;;